createdAt,value
2017-03-03T00:00:22.030Z,1000.85
2017-03-03T00:01:32.803Z,1000.87
2017-03-03T00:02:43.190Z,1000.89
2017-03-03T00:03:53.981Z,1000.88
2017-03-03T00:05:04.382Z,1000.9
2017-03-03T00:06:15.149Z,1000.87
2017-03-03T00:07:25.959Z,1000.87
2017-03-03T00:08:36.349Z,1000.93
2017-03-03T00:09:46.755Z,1000.97
2017-03-03T00:10:57.553Z,1000.9
2017-03-03T00:12:07.529Z,1000.91
2017-03-03T00:13:17.910Z,1000.96
2017-03-03T00:14:28.717Z,1000.92
2017-03-03T00:15:38.716Z,1000.89
2017-03-03T00:16:48.730Z,1000.95
2017-03-03T00:17:59.531Z,1000.89
2017-03-03T00:19:09.928Z,1000.91
2017-03-03T00:20:19.941Z,1000.89
2017-03-03T00:21:30.731Z,1000.89
2017-03-03T00:22:41.114Z,1000.93
2017-03-03T00:23:51.915Z,1000.94
2017-03-03T00:25:01.923Z,1000.97
2017-03-03T00:26:11.918Z,1000.95
2017-03-03T00:27:22.306Z,1000.95
2017-03-03T00:28:32.303Z,1000.96
2017-03-03T00:29:43.088Z,1000.93
2017-03-03T00:30:53.086Z,1000.93
2017-03-03T00:32:03.466Z,1000.93
2017-03-03T00:33:13.489Z,1000.94
2017-03-03T00:34:23.885Z,1000.91
2017-03-03T00:35:33.881Z,1000.95
2017-03-03T00:36:44.267Z,1000.96
2017-03-03T00:37:54.304Z,1000.91
2017-03-03T00:39:04.689Z,1000.93
2017-03-03T00:40:15.091Z,1000.91
2017-03-03T00:41:25.510Z,1000.84
2017-03-03T00:42:36.326Z,1000.84
2017-03-03T00:43:46.694Z,1000.86
2017-03-03T00:44:57.490Z,1000.83
2017-03-03T00:46:07.901Z,1000.85
2017-03-03T00:47:18.299Z,1000.77
2017-03-03T00:48:29.097Z,1000.84
2017-03-03T00:49:39.886Z,1000.78
2017-03-03T00:50:50.681Z,1000.77
2017-03-03T00:52:01.111Z,1000.81
2017-03-03T00:53:11.092Z,1000.83
2017-03-03T00:54:21.469Z,1000.86
2017-03-03T00:55:32.277Z,1000.85
2017-03-03T00:56:43.054Z,1000.84
2017-03-03T00:57:53.465Z,1000.82
2017-03-03T00:59:04.242Z,1000.84
2017-03-03T01:00:14.625Z,1000.84
2017-03-03T01:01:25.435Z,1000.85
2017-03-03T01:02:36.211Z,1000.86
2017-03-03T01:03:46.218Z,1000.84
2017-03-03T01:04:56.605Z,1000.85
2017-03-03T01:06:07.406Z,1000.85
2017-03-03T01:07:17.777Z,1000.89
2017-03-03T01:08:28.566Z,1000.83
2017-03-03T01:09:39.005Z,1000.86
2017-03-03T01:10:49.425Z,1000.87
2017-03-03T01:12:00.210Z,1000.88
2017-03-03T01:13:10.193Z,1000.87
2017-03-03T01:14:20.600Z,1000.91
2017-03-03T01:15:31.007Z,1000.88
2017-03-03T01:16:41.413Z,1000.89
2017-03-03T01:17:52.191Z,1000.88
2017-03-03T01:19:02.979Z,1000.91
2017-03-03T01:20:13.744Z,1000.9
2017-03-03T01:21:24.159Z,1000.94
2017-03-03T01:22:34.932Z,1000.9
2017-03-03T01:23:45.311Z,1000.92
2017-03-03T01:24:56.077Z,1000.91
2017-03-03T01:26:06.456Z,1000.94
2017-03-03T01:27:16.842Z,1000.94
2017-03-03T01:28:27.234Z,1000.98
2017-03-03T01:29:37.262Z,1000.94
2017-03-03T01:30:48.035Z,1000.97
2017-03-03T01:31:58.425Z,1001
2017-03-03T01:33:08.810Z,1000.93
2017-03-03T01:34:19.606Z,1000.91
2017-03-03T01:35:29.990Z,1000.91
2017-03-03T01:36:40.408Z,1000.88
2017-03-03T01:37:50.375Z,1000.89
2017-03-03T01:39:00.746Z,1000.92
2017-03-03T01:40:11.123Z,1000.89
2017-03-03T01:41:21.899Z,1000.89
2017-03-03T01:42:31.899Z,1000.9
2017-03-03T01:43:42.316Z,1000.9
2017-03-03T01:44:53.114Z,1000.93
2017-03-03T01:46:03.529Z,1000.95
2017-03-03T01:47:13.531Z,1000.92
2017-03-03T01:48:23.520Z,1000.96
2017-03-03T01:49:33.520Z,1001.01
2017-03-03T01:50:43.901Z,1001.01
2017-03-03T01:51:53.876Z,1001.03
2017-03-03T01:53:04.275Z,1000.97
2017-03-03T01:54:14.248Z,1001.02
2017-03-03T01:55:24.664Z,1001.01
2017-03-03T01:56:34.691Z,1001.03
2017-03-03T01:57:45.070Z,1001.04
2017-03-03T01:58:55.860Z,1000.94
2017-03-03T02:00:06.251Z,1000.98
2017-03-03T02:01:16.638Z,1000.96
2017-03-03T02:02:27.041Z,1000.99
2017-03-03T02:03:37.808Z,1001
2017-03-03T02:04:48.200Z,1000.97
2017-03-03T02:05:58.184Z,1000.96
2017-03-03T02:07:08.955Z,1000.98
2017-03-03T02:08:19.734Z,1000.97
2017-03-03T02:09:30.518Z,1000.98
2017-03-03T02:10:40.916Z,1001.01
2017-03-03T02:11:51.699Z,1000.99
2017-03-03T02:13:02.481Z,1000.96
2017-03-03T02:14:12.892Z,1000.97
2017-03-03T02:15:23.682Z,1001
2017-03-03T02:16:33.694Z,1001.03
2017-03-03T02:17:44.471Z,1000.99
2017-03-03T02:18:54.875Z,1001.05
2017-03-03T02:20:05.679Z,1001.09
2017-03-03T02:21:16.464Z,1001.03
2017-03-03T02:22:27.240Z,1001.06
2017-03-03T02:23:37.607Z,1001.02
2017-03-03T02:24:47.997Z,1000.99
2017-03-03T02:25:58.783Z,1001
2017-03-03T02:27:09.561Z,1001.02
2017-03-03T02:28:19.535Z,1000.99
2017-03-03T02:29:29.930Z,1001.01
2017-03-03T02:30:40.706Z,1001.04
2017-03-03T02:31:50.315Z,1001.08
2017-03-03T02:33:01.124Z,1001.1
2017-03-03T02:34:10.734Z,1001.11
2017-03-03T02:35:21.508Z,1001.07
2017-03-03T02:36:31.500Z,1001.12
2017-03-03T02:37:42.297Z,1001.1
2017-03-03T02:38:52.682Z,1001.1
2017-03-03T02:40:03.448Z,1001.16
2017-03-03T02:41:14.240Z,1001.15
2017-03-03T02:42:25.003Z,1001.15
2017-03-03T02:43:35.383Z,1001.11
2017-03-03T02:44:46.196Z,1001.11
2017-03-03T02:45:56.577Z,1001.16
2017-03-03T02:47:06.570Z,1001.12
2017-03-03T02:48:17.361Z,1001.08
2017-03-03T02:49:27.758Z,1001.11
2017-03-03T02:50:38.154Z,1001.04
2017-03-03T02:51:48.541Z,1001.05
2017-03-03T02:52:59.333Z,1001.05
2017-03-03T02:54:09.706Z,1001.04
2017-03-03T02:55:20.483Z,1001.11
2017-03-03T02:56:30.909Z,1001.11
2017-03-03T02:57:41.274Z,1001.1
2017-03-03T02:58:51.642Z,1001.15
2017-03-03T03:00:02.039Z,1001.15
2017-03-03T03:01:12.824Z,1001.12
2017-03-03T03:32:35.680Z,1001.29
2017-03-03T03:33:46.444Z,1001.29
2017-03-03T03:34:57.214Z,1001.32
2017-03-03T03:36:07.578Z,1001.32
2017-03-03T03:37:18.342Z,1001.34
2017-03-03T03:38:28.314Z,1001.3
2017-03-03T03:39:38.695Z,1001.26
2017-03-03T03:40:49.091Z,1001.24
2017-03-03T03:41:59.462Z,1001.26
2017-03-03T03:43:10.233Z,1001.24
2017-03-03T03:44:21.009Z,1001.23
2017-03-03T03:45:31.826Z,1001.27
2017-03-03T03:46:42.199Z,1001.31
2017-03-03T03:47:52.974Z,1001.3
2017-03-03T03:49:03.740Z,1001.31
2017-03-03T03:50:14.530Z,1001.31
2017-03-03T03:51:25.307Z,1001.35
2017-03-03T03:52:36.081Z,1001.32
2017-03-03T03:53:46.472Z,1001.29
2017-03-03T03:54:56.454Z,1001.31
2017-03-03T03:56:06.455Z,1001.28
2017-03-03T03:57:17.241Z,1001.31
2017-03-03T03:58:27.619Z,1001.3
2017-03-03T03:59:38.040Z,1001.31
2017-03-03T04:00:48.814Z,1001.31
2017-03-03T04:01:59.235Z,1001.28
2017-03-03T04:03:09.622Z,1001.28
2017-03-03T04:04:20.399Z,1001.29
2017-03-03T04:05:31.185Z,1001.3
2017-03-03T04:06:41.575Z,1001.35
2017-03-03T04:07:51.983Z,1001.38
2017-03-03T04:09:01.610Z,1001.39
2017-03-03T04:10:11.611Z,1001.41
2017-03-03T04:11:21.607Z,1001.35
2017-03-03T04:12:32.387Z,1001.34
2017-03-03T04:13:42.774Z,1001.37
2017-03-03T04:14:52.764Z,1001.36
2017-03-03T04:16:02.785Z,1001.33
2017-03-03T04:17:13.612Z,1001.35
2017-03-03T04:18:23.591Z,1001.37
2017-03-03T04:19:34.398Z,1001.4
2017-03-03T04:20:44.787Z,1001.41
2017-03-03T04:21:54.774Z,1001.42
2017-03-03T04:23:04.837Z,1001.44
2017-03-03T04:24:15.676Z,1001.46
2017-03-03T04:25:26.458Z,1001.43
2017-03-03T04:26:37.243Z,1001.45
2017-03-03T04:27:47.237Z,1001.48
2017-03-03T04:28:57.633Z,1001.44
2017-03-03T04:30:08.443Z,1001.44
2017-03-03T04:31:19.223Z,1001.46
2017-03-03T04:32:29.588Z,1001.33
2017-03-03T04:33:39.988Z,1001.34
2017-03-03T04:34:51.003Z,1001.37
2017-03-03T04:36:00.989Z,1001.38
2017-03-03T04:37:11.780Z,1001.41
2017-03-03T04:38:22.173Z,1001.44
2017-03-03T04:39:32.939Z,1001.41
2017-03-03T04:40:43.714Z,1001.46
2017-03-03T04:41:54.500Z,1001.49
2017-03-03T04:43:05.282Z,1001.55
2017-03-03T04:44:15.671Z,1001.56
2017-03-03T04:45:26.064Z,1001.56
2017-03-03T04:46:36.465Z,1001.58
2017-03-03T04:47:46.837Z,1001.55
2017-03-03T04:48:57.628Z,1001.57
2017-03-03T04:50:07.605Z,1001.65
2017-03-03T04:51:18.371Z,1001.63
2017-03-03T04:52:29.183Z,1001.66
2017-03-03T04:53:39.597Z,1001.67
2017-03-03T04:54:50.371Z,1001.71
2017-03-03T04:56:00.368Z,1001.65
2017-03-03T04:57:10.777Z,1001.65
2017-03-03T04:58:21.551Z,1001.66
2017-03-03T04:59:31.947Z,1001.64
2017-03-03T05:00:42.321Z,1001.66
2017-03-03T05:01:52.714Z,1001.66
2017-03-03T05:03:03.497Z,1001.63
2017-03-03T05:04:13.489Z,1001.65
2017-03-03T05:05:23.868Z,1001.69
2017-03-03T05:06:34.631Z,1001.66
2017-03-03T05:07:45.030Z,1001.65
2017-03-03T05:08:55.803Z,1001.72
2017-03-03T05:10:06.561Z,1001.74
2017-03-03T05:11:16.572Z,1001.81
2017-03-03T05:12:26.959Z,1001.78
2017-03-03T05:13:37.347Z,1001.8
2017-03-03T05:14:47.737Z,1001.79
2017-03-03T05:15:58.113Z,1001.81
2017-03-03T05:17:08.486Z,1001.81
2017-03-03T05:18:19.270Z,1001.86
2017-03-03T05:19:29.684Z,1001.85
2017-03-03T05:20:40.106Z,1001.86
2017-03-03T05:21:50.512Z,1001.88
2017-03-03T05:23:01.305Z,1001.86
2017-03-03T05:24:11.689Z,1001.83
2017-03-03T05:25:21.674Z,1001.89
2017-03-03T05:26:32.461Z,1001.87
2017-03-03T05:27:42.856Z,1001.87
2017-03-03T05:28:53.258Z,1001.91
2017-03-03T05:30:04.033Z,1001.9
2017-03-03T05:31:14.801Z,1001.9
2017-03-03T05:32:25.602Z,1001.88
2017-03-03T05:33:35.985Z,1001.86
2017-03-03T05:34:46.786Z,1001.85
2017-03-03T05:35:57.219Z,1001.86
2017-03-03T05:37:06.440Z,1001.83
2017-03-03T05:38:16.835Z,1001.88
2017-03-03T05:39:27.633Z,1001.85
2017-03-03T05:40:37.259Z,1001.88
2017-03-03T05:41:47.251Z,1001.87
2017-03-03T05:42:57.656Z,1001.93
2017-03-03T05:44:08.032Z,1001.95
2017-03-03T05:45:18.827Z,1001.98
2017-03-03T05:46:28.829Z,1001.97
2017-03-03T05:47:39.605Z,1002
2017-03-03T05:48:50.439Z,1002.04
2017-03-03T05:50:00.826Z,1002.05
2017-03-03T05:51:11.248Z,1002.01
2017-03-03T05:52:21.642Z,1002.05
2017-03-03T05:53:32.027Z,1002.02
2017-03-03T05:54:42.413Z,1002.04
2017-03-03T05:55:52.808Z,1002.03
2017-03-03T05:57:03.584Z,1002
2017-03-03T05:58:13.960Z,1002.02
2017-03-03T05:59:23.181Z,1002.02
2017-03-03T06:00:33.173Z,1002.08
2017-03-03T06:01:43.974Z,1002.08
2017-03-03T06:02:54.748Z,1002.06
2017-03-03T06:04:05.532Z,1002.09
2017-03-03T06:05:15.521Z,1002.11
2017-03-03T06:06:25.913Z,1002.04
2017-03-03T06:07:36.288Z,1002.04
2017-03-03T06:08:46.684Z,1002.04
2017-03-03T06:09:57.051Z,1001.99
2017-03-03T06:11:07.834Z,1001.96
2017-03-03T06:12:18.857Z,1001.93
2017-03-03T06:13:29.232Z,1001.96
2017-03-03T06:14:39.629Z,1001.99
2017-03-03T06:15:50.012Z,1001.94
2017-03-03T06:17:00.813Z,1001.95
2017-03-03T06:18:11.201Z,1001.97
2017-03-03T06:19:21.174Z,1002.01
2017-03-03T06:20:31.182Z,1002.02
2017-03-03T06:21:41.961Z,1002.05
2017-03-03T06:22:52.733Z,1002.02
2017-03-03T06:24:03.508Z,1002.04
2017-03-03T06:25:13.097Z,1002.08
2017-03-03T06:26:23.872Z,1002.12
2017-03-03T06:27:34.257Z,1002.09
2017-03-03T06:28:44.637Z,1002.1
2017-03-03T06:29:55.415Z,1002.12
2017-03-03T06:31:05.809Z,1002.12
2017-03-03T06:32:16.199Z,1002.14
2017-03-03T06:33:26.981Z,1002.13
2017-03-03T06:34:36.954Z,1002.15
2017-03-03T06:35:47.740Z,1002.16
2017-03-03T06:36:58.515Z,1002.18
2017-03-03T06:38:08.903Z,1002.15
2017-03-03T06:39:19.296Z,1002.18
2017-03-03T06:40:29.700Z,1002.15
2017-03-03T06:41:40.496Z,1002.14
2017-03-03T06:42:51.286Z,1002.15
2017-03-03T06:44:01.670Z,1002.13
2017-03-03T06:45:11.681Z,1002.16
2017-03-03T06:46:21.675Z,1002.15
2017-03-03T06:47:31.659Z,1002.19
2017-03-03T06:48:42.074Z,1002.17
2017-03-03T06:49:52.870Z,1002.23
2017-03-03T06:51:03.253Z,1002.25
2017-03-03T06:52:13.246Z,1002.26
2017-03-03T06:53:23.637Z,1002.29
2017-03-03T06:54:34.047Z,1002.28
2017-03-03T06:55:44.430Z,1002.26
2017-03-03T06:56:54.828Z,1002.29
2017-03-03T06:58:05.211Z,1002.32
2017-03-03T06:59:15.984Z,1002.34
2017-03-03T07:00:26.368Z,1002.31
2017-03-03T07:01:36.761Z,1002.32
2017-03-03T07:02:47.539Z,1002.27
2017-03-03T07:03:57.516Z,1002.24
2017-03-03T07:05:07.899Z,1002.24
2017-03-03T07:06:18.287Z,1002.19
2017-03-03T07:07:29.102Z,1002.18
2017-03-03T07:08:39.907Z,1002.16
2017-03-03T07:09:50.313Z,1002.14
2017-03-03T07:11:00.693Z,1002.17
2017-03-03T07:12:11.493Z,1002.09
2017-03-03T07:13:21.910Z,1002.08
2017-03-03T07:14:32.732Z,1002.11
2017-03-03T07:15:43.506Z,1002.13
2017-03-03T07:16:53.919Z,1002.11
2017-03-03T07:18:04.705Z,1002.11
2017-03-03T07:19:15.553Z,1002.14
2017-03-03T07:20:25.935Z,1002.13
2017-03-03T07:27:57.380Z,1002.13
2017-03-03T07:29:08.355Z,1002.12
2017-03-03T07:30:18.348Z,1002.11
2017-03-03T07:31:29.144Z,1002.1
2017-03-03T07:32:39.512Z,1002.04
2017-03-03T07:33:49.904Z,1002.08
2017-03-03T07:35:00.697Z,1002.05
2017-03-03T07:36:10.328Z,1002.05
2017-03-03T07:37:21.114Z,1002.07
2017-03-03T07:38:31.135Z,1002.09
2017-03-03T07:39:41.540Z,1002.07
2017-03-03T07:40:52.335Z,1002.06
2017-03-03T07:42:03.131Z,1002.04
2017-03-03T07:43:13.528Z,1002.03
2017-03-03T07:44:23.921Z,1002.03
2017-03-03T07:45:34.317Z,1002.04
2017-03-03T07:46:44.738Z,1002.09
2017-03-03T07:47:54.733Z,1002.11
2017-03-03T07:49:05.121Z,1002.08
2017-03-03T07:50:15.150Z,1002.02
2017-03-03T07:51:25.545Z,1002.01
2017-03-03T07:52:34.772Z,1001.99
2017-03-03T07:53:45.195Z,1001.99
2017-03-03T07:54:55.565Z,1001.97
2017-03-03T07:56:06.340Z,1001.94
2017-03-03T07:57:16.327Z,1001.95
2017-03-03T07:58:27.130Z,1001.88
2017-03-03T07:59:37.903Z,1001.86
2017-03-03T08:00:47.904Z,1001.82
2017-03-03T08:01:58.304Z,1001.8
2017-03-03T08:03:08.782Z,1001.81
2017-03-03T08:04:19.582Z,1001.81
2017-03-03T08:05:29.989Z,1001.82
2017-03-03T08:06:40.365Z,1001.79
2017-03-03T08:07:51.182Z,1001.8
2017-03-03T08:09:01.175Z,1001.73
2017-03-03T08:10:11.621Z,1001.76
2017-03-03T08:11:22.414Z,1001.77
2017-03-03T08:12:32.411Z,1001.79
2017-03-03T08:13:43.226Z,1001.77
2017-03-03T08:14:54.004Z,1001.8
2017-03-03T08:16:04.788Z,1001.75
2017-03-03T08:17:15.577Z,1001.72
2017-03-03T08:18:25.154Z,1001.76
2017-03-03T08:19:35.962Z,1001.75
2017-03-03T08:20:45.953Z,1001.7
2017-03-03T08:21:56.763Z,1001.73
2017-03-03T08:23:07.181Z,1001.75
2017-03-03T08:24:17.176Z,1001.76
2017-03-03T08:25:27.168Z,1001.78
2017-03-03T08:26:37.950Z,1001.84
2017-03-03T08:27:48.774Z,1001.81
2017-03-03T08:28:59.185Z,1001.84
2017-03-03T08:30:09.199Z,1001.83
2017-03-03T08:31:19.208Z,1001.81
2017-03-03T08:32:29.596Z,1001.82
2017-03-03T08:33:39.997Z,1001.81
2017-03-03T08:34:50.797Z,1001.81
2017-03-03T08:36:01.181Z,1001.79
2017-03-03T08:37:11.987Z,1001.73
2017-03-03T08:38:22.768Z,1001.68
2017-03-03T08:39:33.562Z,1001.7
2017-03-03T08:40:43.973Z,1001.7
2017-03-03T08:41:54.363Z,1001.67
2017-03-03T08:43:05.160Z,1001.68
2017-03-03T08:44:15.169Z,1001.67
2017-03-03T08:45:25.568Z,1001.67
2017-03-03T08:46:35.957Z,1001.7
2017-03-03T08:47:46.748Z,1001.65
2017-03-03T08:48:55.986Z,1001.64
2017-03-03T08:50:06.020Z,1001.63
2017-03-03T08:51:16.045Z,1001.58
2017-03-03T08:52:26.085Z,1001.53
2017-03-03T08:53:36.099Z,1001.48
2017-03-03T08:54:46.883Z,1001.48
2017-03-03T08:55:57.294Z,1001.52
2017-03-03T08:57:08.074Z,1001.54
2017-03-03T08:58:18.511Z,1001.55
2017-03-03T08:59:28.928Z,1001.49
2017-03-03T09:00:39.720Z,1001.49
2017-03-03T09:01:50.561Z,1001.53
2017-03-03T09:03:01.352Z,1001.46
2017-03-03T09:04:12.156Z,1001.43
2017-03-03T09:05:22.971Z,1001.4
2017-03-03T09:06:33.754Z,1001.39
2017-03-03T09:07:44.170Z,1001.34
2017-03-03T09:08:54.571Z,1001.38
2017-03-03T09:10:05.364Z,1001.36
2017-03-03T09:11:16.152Z,1001.37
2017-03-03T09:12:26.957Z,1001.36
2017-03-03T09:13:37.757Z,1001.38
2017-03-03T09:14:48.560Z,1001.34
2017-03-03T09:15:58.534Z,1001.33
2017-03-03T09:17:09.316Z,1001.23
2017-03-03T09:18:20.087Z,1001.24
2017-03-03T09:19:30.481Z,1001.29
2017-03-03T09:20:41.263Z,1001.3
2017-03-03T09:21:52.068Z,1001.27
2017-03-03T09:23:02.888Z,1001.26
2017-03-03T09:24:13.704Z,1001.25
2017-03-03T09:25:24.126Z,1001.22
2017-03-03T09:26:34.914Z,1001.25
2017-03-03T09:27:45.736Z,1001.2
2017-03-03T09:28:56.112Z,1001.22
2017-03-03T09:30:06.897Z,1001.2
2017-03-03T09:31:17.300Z,1001.13
2017-03-03T09:32:27.712Z,1001.13
2017-03-03T09:33:38.105Z,1001.08
2017-03-03T09:34:48.511Z,1001.08
2017-03-03T09:35:58.934Z,1001.08
2017-03-03T09:37:09.713Z,1001.03
2017-03-03T09:38:20.725Z,1001.04
2017-03-03T09:39:31.526Z,1001.04
2017-03-03T09:40:41.532Z,1001.03
2017-03-03T09:41:52.322Z,1000.98
2017-03-03T09:43:02.756Z,1000.94
2017-03-03T09:44:13.145Z,1000.92
2017-03-03T09:45:23.951Z,1000.92
2017-03-03T09:46:34.366Z,1000.9
2017-03-03T09:47:45.166Z,1000.88
2017-03-03T09:48:55.953Z,1000.77
2017-03-03T09:50:06.763Z,1000.84
2017-03-03T09:51:17.530Z,1000.79
2017-03-03T09:52:27.931Z,1000.73
2017-03-03T09:53:38.339Z,1000.69
2017-03-03T09:54:48.742Z,1000.69
2017-03-03T09:55:58.743Z,1000.69
2017-03-03T09:57:09.135Z,1000.61
2017-03-03T09:58:19.529Z,1000.56
2017-03-03T09:59:29.931Z,1000.53
2017-03-03T10:00:40.327Z,1000.45
2017-03-03T10:01:51.128Z,1000.41
2017-03-03T10:03:01.935Z,1000.38
2017-03-03T10:04:12.358Z,1000.42
2017-03-03T10:05:23.131Z,1000.43
2017-03-03T10:06:33.152Z,1000.44
2017-03-03T10:07:43.193Z,1000.48
2017-03-03T10:08:53.993Z,1000.47
2017-03-03T10:10:04.779Z,1000.49
2017-03-03T10:11:15.565Z,1000.53
2017-03-03T10:12:26.357Z,1000.53
2017-03-03T10:13:37.194Z,1000.49
2017-03-03T10:14:48.010Z,1000.39
2017-03-03T10:15:59.100Z,1000.41
2017-03-03T10:17:09.932Z,1000.32
2017-03-03T10:18:20.770Z,1000.35
2017-03-03T10:19:31.149Z,1000.34
2017-03-03T10:20:41.224Z,1000.29
2017-03-03T10:21:51.999Z,1000.15
2017-03-03T10:23:02.006Z,1000.14
2017-03-03T10:24:12.393Z,1000.09
2017-03-03T10:25:22.771Z,1000.05
2017-03-03T10:26:33.545Z,1000.11
2017-03-03T10:27:44.351Z,1000.03
2017-03-03T10:28:55.152Z,1000.05
2017-03-03T10:30:05.555Z,999.95
2017-03-03T10:31:15.593Z,999.92
2017-03-03T10:32:26.035Z,999.87
2017-03-03T10:33:36.844Z,999.78
2017-03-03T10:34:46.856Z,999.76
2017-03-03T10:35:57.634Z,999.73
2017-03-03T10:37:08.029Z,999.75
2017-03-03T10:38:18.808Z,999.75
2017-03-03T10:39:28.808Z,999.76
2017-03-03T10:40:39.211Z,999.74
2017-03-03T10:41:50.028Z,999.71
2017-03-03T10:43:00.849Z,999.68
2017-03-03T10:44:10.863Z,999.71
2017-03-03T10:45:20.863Z,999.67
2017-03-03T10:46:31.666Z,999.63
2017-03-03T10:47:41.676Z,999.57
2017-03-03T10:48:51.381Z,999.52
2017-03-03T10:50:02.415Z,999.52
2017-03-03T10:51:13.061Z,999.49
2017-03-03T10:52:23.692Z,999.5
2017-03-03T10:53:34.521Z,999.45
2017-03-03T10:54:45.654Z,999.46
2017-03-03T10:55:56.554Z,999.44
2017-03-03T10:57:07.187Z,999.5
2017-03-03T10:58:18.416Z,999.45
2017-03-03T10:59:29.135Z,999.43
2017-03-03T11:00:41.309Z,999.44
2017-03-03T11:01:52.466Z,999.38
2017-03-03T11:03:03.704Z,999.37
2017-03-03T11:04:14.929Z,999.28
2017-03-03T11:05:25.827Z,999.2
2017-03-03T11:06:36.998Z,999.18
2017-03-03T11:07:48.522Z,999.13
2017-03-03T11:08:59.622Z,999.02
2017-03-03T11:10:10.487Z,998.96
2017-03-03T11:11:21.574Z,998.97
2017-03-03T11:12:32.725Z,998.94
2017-03-03T11:13:43.591Z,998.94
2017-03-03T11:14:53.998Z,998.81
2017-03-03T11:16:04.829Z,998.8
2017-03-03T11:17:15.258Z,998.85
2017-03-03T11:18:24.898Z,998.82
2017-03-03T11:19:35.299Z,998.83
2017-03-03T11:20:46.119Z,998.76
2017-03-03T11:21:56.923Z,998.76
2017-03-03T11:23:06.542Z,998.72
2017-03-03T11:24:16.962Z,998.75
2017-03-03T11:25:26.960Z,998.69
2017-03-03T11:26:37.380Z,998.72
2017-03-03T11:27:47.781Z,998.6
2017-03-03T11:28:58.200Z,998.61
2017-03-03T11:30:08.635Z,998.6
2017-03-03T11:31:19.454Z,998.54
2017-03-03T11:32:29.519Z,998.53
2017-03-03T11:33:39.989Z,998.52
2017-03-03T11:34:50.015Z,998.48
2017-03-03T11:36:00.862Z,998.48
2017-03-03T11:37:10.865Z,998.5
2017-03-03T11:38:21.271Z,998.48
2017-03-03T11:39:31.691Z,998.46
2017-03-03T11:40:42.129Z,998.39
2017-03-03T11:41:52.957Z,998.42
2017-03-03T11:43:02.598Z,998.42
2017-03-03T11:44:13.461Z,998.3
2017-03-03T11:45:24.279Z,998.33
2017-03-03T11:46:34.704Z,998.34
2017-03-03T11:47:44.718Z,998.36
2017-03-03T11:48:55.530Z,998.32
2017-03-03T11:50:05.961Z,998.24
2017-03-03T11:51:16.381Z,998.27
2017-03-03T11:52:27.225Z,998.17
2017-03-03T11:53:37.621Z,998.14
2017-03-03T11:54:48.071Z,998.19
2017-03-03T11:55:57.727Z,998.12
2017-03-03T11:57:08.560Z,998.15
2017-03-03T11:58:19.360Z,998.12
2017-03-03T11:59:30.155Z,998.06
2017-03-03T12:00:39.750Z,998.03
2017-03-03T12:01:49.781Z,998.03
2017-03-03T12:03:00.554Z,997.96
2017-03-03T12:04:10.552Z,997.91
2017-03-03T12:05:20.590Z,997.95
2017-03-03T12:06:30.598Z,997.88
2017-03-03T12:07:41.023Z,997.87
2017-03-03T12:08:51.410Z,997.8
2017-03-03T12:10:01.850Z,997.75
2017-03-03T12:11:11.874Z,997.83
2017-03-03T12:12:22.696Z,997.73
2017-03-03T12:13:32.706Z,997.71
2017-03-03T12:14:43.162Z,997.67
2017-03-03T12:15:53.960Z,997.66
2017-03-03T12:17:04.383Z,997.62
2017-03-03T12:18:15.176Z,997.52
2017-03-03T12:19:25.644Z,997.53
2017-03-03T12:20:36.457Z,997.5
2017-03-03T12:21:47.253Z,997.4
2017-03-03T12:22:57.688Z,997.47
2017-03-03T12:24:08.510Z,997.42
2017-03-03T12:25:19.311Z,997.41
2017-03-03T12:26:29.724Z,997.37
2017-03-03T12:27:40.531Z,997.29
2017-03-03T12:28:50.951Z,997.35
2017-03-03T12:30:01.752Z,997.25
2017-03-03T12:31:11.753Z,997.23
2017-03-03T12:32:22.605Z,997.24
2017-03-03T12:33:32.632Z,997.2
2017-03-03T12:34:43.398Z,997.2
2017-03-03T12:35:53.814Z,997.25
2017-03-03T12:37:04.212Z,997.17
2017-03-03T12:38:14.610Z,997.18
2017-03-03T12:39:25.386Z,997.13
2017-03-03T12:40:36.204Z,997.11
2017-03-03T12:41:46.613Z,997.09
2017-03-03T12:42:57.442Z,997.08
2017-03-03T12:44:07.860Z,997.02
2017-03-03T12:45:18.312Z,997.03
2017-03-03T12:46:29.147Z,997.05
2017-03-03T12:47:39.976Z,997
2017-03-03T12:48:49.992Z,997.07
2017-03-03T12:50:00.392Z,996.99
2017-03-03T12:51:11.188Z,996.9
2017-03-03T12:52:22.007Z,996.91
2017-03-03T12:53:32.431Z,996.85
2017-03-03T12:54:42.861Z,996.87
2017-03-03T12:55:53.686Z,996.88
2017-03-03T12:57:04.468Z,996.81
2017-03-03T12:58:14.899Z,996.8
2017-03-03T12:59:24.900Z,996.78
2017-03-03T13:00:35.703Z,996.76
2017-03-03T13:01:46.546Z,996.71
2017-03-03T13:02:57.366Z,996.69
2017-03-03T13:04:07.787Z,996.64
2017-03-03T13:05:17.804Z,996.66
2017-03-03T13:06:28.616Z,996.63
2017-03-03T13:07:39.408Z,996.62
2017-03-03T13:08:50.237Z,996.56
2017-03-03T13:10:00.660Z,996.62
2017-03-03T13:11:11.490Z,996.53
2017-03-03T13:12:21.907Z,996.56
2017-03-03T13:13:32.311Z,996.51
2017-03-03T13:14:43.114Z,996.46
2017-03-03T13:15:53.538Z,996.41
2017-03-03T13:17:03.970Z,996.43
2017-03-03T13:18:14.822Z,996.36
2017-03-03T13:19:24.829Z,996.39
2017-03-03T13:20:34.842Z,996.34
2017-03-03T13:21:45.247Z,996.28
2017-03-03T13:22:56.040Z,996.34
2017-03-03T13:24:06.498Z,996.34
2017-03-03T13:25:17.291Z,996.19
2017-03-03T13:26:27.719Z,996.16
2017-03-03T13:27:38.123Z,996.17
2017-03-03T13:28:48.924Z,996.15
2017-03-03T13:29:59.767Z,996.11
2017-03-03T13:31:10.608Z,996.07
2017-03-03T13:32:21.393Z,996.01
2017-03-03T13:33:32.196Z,995.98
2017-03-03T13:34:42.999Z,995.88
2017-03-03T13:35:53.409Z,995.95
2017-03-03T13:37:04.201Z,995.84
2017-03-03T13:38:13.826Z,995.79
2017-03-03T13:39:24.231Z,995.82
2017-03-03T13:40:35.029Z,995.89
2017-03-03T13:41:45.845Z,995.83
2017-03-03T13:42:55.884Z,995.79
2017-03-03T13:44:06.265Z,995.78
2017-03-03T13:45:16.718Z,995.74
2017-03-03T13:46:27.127Z,995.83
2017-03-03T13:47:37.949Z,995.74
2017-03-03T13:48:48.792Z,995.83
2017-03-03T13:49:59.214Z,995.75
2017-03-03T13:51:09.601Z,995.77
2017-03-03T13:52:20.019Z,995.79
2017-03-03T13:53:29.642Z,995.73
2017-03-03T13:54:40.056Z,995.66
2017-03-03T13:55:49.665Z,995.73
2017-03-03T13:57:00.093Z,995.74
2017-03-03T13:58:10.494Z,995.74
2017-03-03T13:59:21.274Z,995.71
2017-03-03T14:00:31.679Z,995.78
2017-03-03T14:01:42.478Z,995.72
2017-03-03T14:02:52.899Z,995.79
2017-03-03T14:04:03.291Z,995.71
2017-03-03T14:05:14.087Z,995.67
2017-03-03T14:06:24.874Z,995.71
2017-03-03T14:07:34.886Z,995.72
2017-03-03T14:08:45.382Z,995.67
2017-03-03T14:09:56.210Z,995.64
2017-03-03T14:11:06.650Z,995.57
2017-03-03T14:12:17.453Z,995.64
2017-03-03T14:13:27.852Z,995.64
2017-03-03T14:14:38.689Z,995.64
2017-03-03T14:15:49.091Z,995.64
2017-03-03T14:16:59.902Z,995.51
2017-03-03T14:18:09.936Z,995.46
2017-03-03T14:19:20.347Z,995.44
2017-03-03T14:20:30.779Z,995.4
2017-03-03T14:21:41.577Z,995.49
2017-03-03T14:22:52.363Z,995.49
2017-03-03T14:24:03.191Z,995.49
2017-03-03T14:25:13.624Z,995.46
2017-03-03T14:26:24.037Z,995.51
2017-03-03T14:27:34.851Z,995.46
2017-03-03T14:28:45.668Z,995.53
2017-03-03T14:29:56.076Z,995.47
2017-03-03T14:31:06.881Z,995.44
2017-03-03T14:32:17.698Z,995.52
2017-03-03T14:33:28.109Z,995.51
2017-03-03T14:34:38.513Z,995.44
2017-03-03T14:35:48.918Z,995.42
2017-03-03T14:36:59.732Z,995.4
2017-03-03T14:38:10.170Z,995.35
2017-03-03T14:39:19.832Z,995.43
2017-03-03T14:40:30.839Z,995.33
2017-03-03T14:41:41.631Z,995.23
2017-03-03T14:42:52.043Z,995.34
2017-03-03T14:44:02.874Z,995.32
2017-03-03T14:45:13.676Z,995.32
2017-03-03T14:46:24.476Z,995.34
2017-03-03T14:47:34.475Z,995.3
2017-03-03T14:48:45.294Z,995.29
2017-03-03T14:49:55.323Z,995.3
2017-03-03T14:51:05.356Z,995.26
2017-03-03T14:52:15.011Z,995.25
2017-03-03T14:53:25.419Z,995.22
2017-03-03T14:54:36.204Z,995.22
2017-03-03T14:55:45.822Z,995.17
2017-03-03T14:56:55.848Z,995.13
2017-03-03T14:58:06.657Z,995.06
2017-03-03T14:59:17.468Z,995.07